sensor_id;sensor_type;location;lat;lon;timestamp;P1;durP1;ratioP1;P2;durP2;ratioP2
81811;SDS011;71243;51.848;5.768;2023-08-06T00:01:35;6.90;;;2.20;;
81811;SDS011;71243;51.848;5.768;2023-08-06T00:04:01;5.97;;;1.93;;
81811;SDS011;71243;51.848;5.768;2023-08-06T00:06:26;5.80;;;2.33;;
81811;SDS011;71243;51.848;5.768;2023-08-06T00:08:51;6.03;;;1.77;;
81811;SDS011;71243;51.848;5.768;2023-08-06T00:11:16;6.43;;;2.17;;
81811;SDS011;71243;51.848;5.768;2023-08-06T00:13:42;5.78;;;2.03;;
81811;SDS011;71243;51.848;5.768;2023-08-06T00:18:36;7.25;;;2.45;;
81811;SDS011;71243;51.848;5.768;2023-08-06T00:21:01;8.87;;;2.70;;
81811;SDS011;71243;51.848;5.768;2023-08-06T00:23:26;7.00;;;2.33;;
81811;SDS011;71243;51.848;5.768;2023-08-06T00:25:51;5.72;;;1.90;;
81811;SDS011;71243;51.848;5.768;2023-08-06T00:28:17;6.78;;;2.05;;
81811;SDS011;71243;51.848;5.768;2023-08-06T00:30:42;6.30;;;2.47;;
81811;SDS011;71243;51.848;5.768;2023-08-06T00:33:07;5.70;;;2.10;;
81811;SDS011;71243;51.848;5.768;2023-08-06T00:35:32;6.30;;;2.07;;
81811;SDS011;71243;51.848;5.768;2023-08-06T00:37:58;5.85;;;2.03;;
81811;SDS011;71243;51.848;5.768;2023-08-06T00:40:23;6.53;;;2.15;;
81811;SDS011;71243;51.848;5.768;2023-08-06T00:42:48;4.82;;;1.95;;
81811;SDS011;71243;51.848;5.768;2023-08-06T00:45:13;5.15;;;2.00;;
81811;SDS011;71243;51.848;5.768;2023-08-06T00:47:39;6.10;;;2.00;;
81811;SDS011;71243;51.848;5.768;2023-08-06T00:50:05;5.45;;;2.10;;
81811;SDS011;71243;51.848;5.768;2023-08-06T00:52:32;6.90;;;2.35;;
81811;SDS011;71243;51.848;5.768;2023-08-06T00:54:57;5.80;;;2.10;;
81811;SDS011;71243;51.848;5.768;2023-08-06T00:57:22;7.05;;;2.10;;
81811;SDS011;71243;51.848;5.768;2023-08-06T00:59:49;6.15;;;2.00;;
81811;SDS011;71243;51.848;5.768;2023-08-06T01:02:14;6.37;;;2.03;;
81811;SDS011;71243;51.848;5.768;2023-08-06T01:04:40;6.10;;;1.80;;
81811;SDS011;71243;51.848;5.768;2023-08-06T01:12:45;6.13;;;2.03;;
81811;SDS011;71243;51.848;5.768;2023-08-06T01:15:18;6.40;;;2.10;;
81811;SDS011;71243;51.848;5.768;2023-08-06T01:17:47;8.85;;;2.17;;
81811;SDS011;71243;51.848;5.768;2023-08-06T01:20:13;5.80;;;2.03;;
81811;SDS011;71243;51.848;5.768;2023-08-06T01:22:38;5.68;;;2.20;;
81811;SDS011;71243;51.848;5.768;2023-08-06T01:25:03;5.97;;;2.40;;
81811;SDS011;71243;51.848;5.768;2023-08-06T01:27:42;6.57;;;2.55;;
81811;SDS011;71243;51.848;5.768;2023-08-06T01:30:19;7.15;;;2.60;;
81811;SDS011;71243;51.848;5.768;2023-08-06T01:32:53;6.00;;;2.10;;
81811;SDS011;71243;51.848;5.768;2023-08-06T01:35:22;6.97;;;2.38;;
81811;SDS011;71243;51.848;5.768;2023-08-06T01:37:48;7.50;;;2.75;;
81811;SDS011;71243;51.848;5.768;2023-08-06T01:40:13;6.82;;;2.88;;
81811;SDS011;71243;51.848;5.768;2023-08-06T01:42:39;8.55;;;2.95;;
81811;SDS011;71243;51.848;5.768;2023-08-06T01:45:05;7.45;;;3.20;;
81811;SDS011;71243;51.848;5.768;2023-08-06T01:47:32;8.00;;;2.58;;
81811;SDS011;71243;51.848;5.768;2023-08-06T01:49:57;8.52;;;3.38;;
81811;SDS011;71243;51.848;5.768;2023-08-06T01:52:22;8.17;;;3.53;;
81811;SDS011;71243;51.848;5.768;2023-08-06T01:54:47;7.45;;;3.17;;
81811;SDS011;71243;51.848;5.768;2023-08-06T01:57:13;9.07;;;3.30;;
81811;SDS011;71243;51.848;5.768;2023-08-06T01:59:38;9.45;;;3.30;;
81811;SDS011;71243;51.848;5.768;2023-08-06T02:02:03;8.93;;;3.40;;
81811;SDS011;71243;51.848;5.768;2023-08-06T02:04:29;10.68;;;5.03;;
81811;SDS011;71243;51.848;5.768;2023-08-06T02:06:54;7.63;;;3.70;;
81811;SDS011;71243;51.848;5.768;2023-08-06T02:09:19;8.53;;;3.63;;
81811;SDS011;71243;51.848;5.768;2023-08-06T02:11:44;8.10;;;3.83;;
81811;SDS011;71243;51.848;5.768;2023-08-06T02:14:10;8.27;;;3.67;;
81811;SDS011;71243;51.848;5.768;2023-08-06T02:16:35;10.23;;;3.90;;
81811;SDS011;71243;51.848;5.768;2023-08-06T02:19:00;8.65;;;3.60;;
81811;SDS011;71243;51.848;5.768;2023-08-06T02:21:25;7.93;;;4.18;;
81811;SDS011;71243;51.848;5.768;2023-08-06T02:23:51;10.27;;;3.70;;
81811;SDS011;71243;51.848;5.768;2023-08-06T02:26:16;8.23;;;3.93;;
81811;SDS011;71243;51.848;5.768;2023-08-06T02:28:41;8.35;;;3.55;;
81811;SDS011;71243;51.848;5.768;2023-08-06T02:31:06;8.37;;;3.50;;
81811;SDS011;71243;51.848;5.768;2023-08-06T02:33:32;9.00;;;4.03;;
81811;SDS011;71243;51.848;5.768;2023-08-06T02:36:03;8.27;;;3.73;;
81811;SDS011;71243;51.848;5.768;2023-08-06T02:38:29;8.55;;;3.97;;
81811;SDS011;71243;51.848;5.768;2023-08-06T02:40:55;8.77;;;3.97;;
81811;SDS011;71243;51.848;5.768;2023-08-06T02:43:20;8.95;;;4.10;;
81811;SDS011;71243;51.848;5.768;2023-08-06T02:45:45;9.63;;;4.15;;
81811;SDS011;71243;51.848;5.768;2023-08-06T02:48:11;10.27;;;4.68;;
81811;SDS011;71243;51.848;5.768;2023-08-06T02:50:39;11.75;;;4.10;;
81811;SDS011;71243;51.848;5.768;2023-08-06T02:53:06;9.10;;;4.15;;
81811;SDS011;71243;51.848;5.768;2023-08-06T02:55:31;8.77;;;4.13;;
81811;SDS011;71243;51.848;5.768;2023-08-06T02:57:57;8.63;;;4.13;;
81811;SDS011;71243;51.848;5.768;2023-08-06T03:00:22;8.93;;;4.33;;
81811;SDS011;71243;51.848;5.768;2023-08-06T03:02:47;10.95;;;5.93;;
81811;SDS011;71243;51.848;5.768;2023-08-06T03:05:12;9.97;;;4.90;;
81811;SDS011;71243;51.848;5.768;2023-08-06T03:07:38;10.73;;;5.32;;
81811;SDS011;71243;51.848;5.768;2023-08-06T03:10:03;10.67;;;5.47;;
81811;SDS011;71243;51.848;5.768;2023-08-06T03:12:29;10.98;;;5.45;;
81811;SDS011;71243;51.848;5.768;2023-08-06T03:14:54;13.27;;;5.30;;
81811;SDS011;71243;51.848;5.768;2023-08-06T03:17:19;10.30;;;5.13;;
81811;SDS011;71243;51.848;5.768;2023-08-06T03:19:45;11.10;;;5.30;;
81811;SDS011;71243;51.848;5.768;2023-08-06T03:22:10;12.32;;;5.03;;
81811;SDS011;71243;51.848;5.768;2023-08-06T03:24:35;13.97;;;5.83;;
81811;SDS011;71243;51.848;5.768;2023-08-06T03:27:01;13.07;;;5.85;;
81811;SDS011;71243;51.848;5.768;2023-08-06T03:29:26;11.73;;;5.82;;
81811;SDS011;71243;51.848;5.768;2023-08-06T03:31:51;10.65;;;5.72;;
81811;SDS011;71243;51.848;5.768;2023-08-06T03:34:17;11.32;;;5.18;;
81811;SDS011;71243;51.848;5.768;2023-08-06T03:36:42;11.88;;;5.85;;
81811;SDS011;71243;51.848;5.768;2023-08-06T03:39:07;12.02;;;5.53;;
81811;SDS011;71243;51.848;5.768;2023-08-06T03:41:33;10.93;;;5.37;;
81811;SDS011;71243;51.848;5.768;2023-08-06T03:43:58;12.77;;;6.13;;
81811;SDS011;71243;51.848;5.768;2023-08-06T03:46:23;12.07;;;6.60;;
81811;SDS011;71243;51.848;5.768;2023-08-06T03:48:48;10.88;;;5.43;;
81811;SDS011;71243;51.848;5.768;2023-08-06T03:51:13;12.97;;;6.47;;
81811;SDS011;71243;51.848;5.768;2023-08-06T03:53:39;14.50;;;6.37;;
81811;SDS011;71243;51.848;5.768;2023-08-06T03:56:04;13.63;;;7.00;;
81811;SDS011;71243;51.848;5.768;2023-08-06T03:58:29;13.38;;;6.53;;
81811;SDS011;71243;51.848;5.768;2023-08-06T04:01:01;13.57;;;7.03;;
81811;SDS011;71243;51.848;5.768;2023-08-06T04:03:27;11.95;;;5.95;;
81811;SDS011;71243;51.848;5.768;2023-08-06T04:05:53;12.90;;;6.22;;
81811;SDS011;71243;51.848;5.768;2023-08-06T04:08:19;12.90;;;6.10;;
81811;SDS011;71243;51.848;5.768;2023-08-06T04:10:45;13.85;;;7.00;;
81811;SDS011;71243;51.848;5.768;2023-08-06T04:13:10;12.03;;;7.03;;
81811;SDS011;71243;51.848;5.768;2023-08-06T04:15:35;12.27;;;6.37;;
81811;SDS011;71243;51.848;5.768;2023-08-06T04:18:00;13.15;;;7.28;;
81811;SDS011;71243;51.848;5.768;2023-08-06T04:20:26;14.43;;;7.03;;
81811;SDS011;71243;51.848;5.768;2023-08-06T04:22:53;14.38;;;7.38;;
81811;SDS011;71243;51.848;5.768;2023-08-06T04:25:19;17.02;;;7.68;;
81811;SDS011;71243;51.848;5.768;2023-08-06T04:27:44;14.68;;;7.15;;
81811;SDS011;71243;51.848;5.768;2023-08-06T04:30:10;15.45;;;7.40;;
81811;SDS011;71243;51.848;5.768;2023-08-06T04:32:35;15.15;;;7.10;;
81811;SDS011;71243;51.848;5.768;2023-08-06T04:35:00;15.40;;;8.00;;
81811;SDS011;71243;51.848;5.768;2023-08-06T04:37:26;14.82;;;7.75;;
81811;SDS011;71243;51.848;5.768;2023-08-06T04:39:51;15.03;;;7.67;;
81811;SDS011;71243;51.848;5.768;2023-08-06T04:42:16;17.33;;;9.00;;
81811;SDS011;71243;51.848;5.768;2023-08-06T04:44:42;15.87;;;7.87;;
81811;SDS011;71243;51.848;5.768;2023-08-06T04:47:07;15.37;;;7.90;;
81811;SDS011;71243;51.848;5.768;2023-08-06T04:49:32;14.77;;;7.87;;
81811;SDS011;71243;51.848;5.768;2023-08-06T04:51:57;16.70;;;8.30;;
81811;SDS011;71243;51.848;5.768;2023-08-06T04:54:22;15.97;;;8.33;;
81811;SDS011;71243;51.848;5.768;2023-08-06T04:56:48;17.58;;;7.82;;
81811;SDS011;71243;51.848;5.768;2023-08-06T04:59:13;16.13;;;8.30;;
81811;SDS011;71243;51.848;5.768;2023-08-06T05:01:38;15.97;;;8.27;;
81811;SDS011;71243;51.848;5.768;2023-08-06T05:04:03;14.57;;;8.37;;
81811;SDS011;71243;51.848;5.768;2023-08-06T05:06:29;15.97;;;8.20;;
81811;SDS011;71243;51.848;5.768;2023-08-06T05:08:54;15.73;;;8.18;;
81811;SDS011;71243;51.848;5.768;2023-08-06T05:11:19;14.63;;;7.13;;
81811;SDS011;71243;51.848;5.768;2023-08-06T05:13:44;13.93;;;7.13;;
81811;SDS011;71243;51.848;5.768;2023-08-06T05:16:09;14.97;;;7.77;;
81811;SDS011;71243;51.848;5.768;2023-08-06T05:18:35;16.10;;;7.97;;
81811;SDS011;71243;51.848;5.768;2023-08-06T05:21:00;13.43;;;7.37;;
81811;SDS011;71243;51.848;5.768;2023-08-06T05:23:25;15.10;;;7.88;;
81811;SDS011;71243;51.848;5.768;2023-08-06T05:25:50;13.95;;;7.85;;
81811;SDS011;71243;51.848;5.768;2023-08-06T05:28:16;16.03;;;7.47;;
81811;SDS011;71243;51.848;5.768;2023-08-06T05:30:41;16.10;;;8.87;;
81811;SDS011;71243;51.848;5.768;2023-08-06T05:33:06;16.25;;;7.38;;
81811;SDS011;71243;51.848;5.768;2023-08-06T05:35:31;16.70;;;7.97;;
81811;SDS011;71243;51.848;5.768;2023-08-06T05:37:57;13.53;;;7.00;;
81811;SDS011;71243;51.848;5.768;2023-08-06T05:40:22;15.48;;;7.32;;
81811;SDS011;71243;51.848;5.768;2023-08-06T05:42:47;14.25;;;7.53;;
81811;SDS011;71243;51.848;5.768;2023-08-06T05:45:12;17.67;;;7.43;;
81811;SDS011;71243;51.848;5.768;2023-08-06T05:47:38;13.57;;;7.15;;
81811;SDS011;71243;51.848;5.768;2023-08-06T05:50:03;15.03;;;7.20;;
81811;SDS011;71243;51.848;5.768;2023-08-06T05:52:29;16.73;;;8.27;;
81811;SDS011;71243;51.848;5.768;2023-08-06T05:54:54;15.63;;;8.07;;
81811;SDS011;71243;51.848;5.768;2023-08-06T05:57:19;13.67;;;7.67;;
81811;SDS011;71243;51.848;5.768;2023-08-06T05:59:44;15.85;;;8.75;;
81811;SDS011;71243;51.848;5.768;2023-08-06T06:02:10;14.87;;;7.30;;
81811;SDS011;71243;51.848;5.768;2023-08-06T06:04:35;16.65;;;7.57;;
81811;SDS011;71243;51.848;5.768;2023-08-06T06:07:00;15.30;;;8.05;;
81811;SDS011;71243;51.848;5.768;2023-08-06T06:09:26;16.42;;;7.65;;
81811;SDS011;71243;51.848;5.768;2023-08-06T06:11:51;15.50;;;8.45;;
81811;SDS011;71243;51.848;5.768;2023-08-06T06:14:17;16.08;;;7.82;;
81811;SDS011;71243;51.848;5.768;2023-08-06T06:16:42;15.45;;;8.15;;
81811;SDS011;71243;51.848;5.768;2023-08-06T06:19:07;15.43;;;9.37;;
81811;SDS011;71243;51.848;5.768;2023-08-06T06:21:33;14.77;;;8.20;;
81811;SDS011;71243;51.848;5.768;2023-08-06T06:23:58;16.30;;;9.02;;
81811;SDS011;71243;51.848;5.768;2023-08-06T06:26:23;15.48;;;8.02;;
81811;SDS011;71243;51.848;5.768;2023-08-06T06:28:48;16.10;;;7.82;;
81811;SDS011;71243;51.848;5.768;2023-08-06T06:31:14;15.80;;;8.57;;
81811;SDS011;71243;51.848;5.768;2023-08-06T06:33:39;14.90;;;7.77;;
81811;SDS011;71243;51.848;5.768;2023-08-06T06:36:04;15.90;;;8.63;;
81811;SDS011;71243;51.848;5.768;2023-08-06T06:38:29;16.93;;;8.40;;
81811;SDS011;71243;51.848;5.768;2023-08-06T06:40:55;20.00;;;10.27;;
81811;SDS011;71243;51.848;5.768;2023-08-06T06:43:21;17.77;;;9.88;;
81811;SDS011;71243;51.848;5.768;2023-08-06T06:45:46;15.93;;;8.32;;
81811;SDS011;71243;51.848;5.768;2023-08-06T06:48:11;15.80;;;8.75;;
81811;SDS011;71243;51.848;5.768;2023-08-06T06:50:37;15.13;;;8.17;;
81811;SDS011;71243;51.848;5.768;2023-08-06T06:53:02;17.23;;;8.25;;
81811;SDS011;71243;51.848;5.768;2023-08-06T06:55:27;14.43;;;7.57;;
81811;SDS011;71243;51.848;5.768;2023-08-06T06:57:52;15.57;;;8.33;;
81811;SDS011;71243;51.848;5.768;2023-08-06T07:00:18;16.70;;;7.75;;
81811;SDS011;71243;51.848;5.768;2023-08-06T07:02:43;15.38;;;7.88;;
81811;SDS011;71243;51.848;5.768;2023-08-06T07:05:08;15.90;;;7.43;;
81811;SDS011;71243;51.848;5.768;2023-08-06T07:07:33;13.73;;;7.53;;
81811;SDS011;71243;51.848;5.768;2023-08-06T07:09:59;13.83;;;7.23;;
81811;SDS011;71243;51.848;5.768;2023-08-06T07:12:24;16.48;;;8.07;;
81811;SDS011;71243;51.848;5.768;2023-08-06T07:14:49;13.37;;;7.20;;
81811;SDS011;71243;51.848;5.768;2023-08-06T07:17:14;14.30;;;6.57;;
81811;SDS011;71243;51.848;5.768;2023-08-06T07:19:40;13.80;;;7.50;;
81811;SDS011;71243;51.848;5.768;2023-08-06T07:22:05;12.25;;;6.65;;
81811;SDS011;71243;51.848;5.768;2023-08-06T07:24:30;14.60;;;6.97;;
81811;SDS011;71243;51.848;5.768;2023-08-06T07:26:55;13.00;;;7.60;;
81811;SDS011;71243;51.848;5.768;2023-08-06T07:29:21;12.77;;;6.80;;
81811;SDS011;71243;51.848;5.768;2023-08-06T07:31:46;11.83;;;5.87;;
81811;SDS011;71243;51.848;5.768;2023-08-06T07:34:11;12.50;;;6.50;;
81811;SDS011;71243;51.848;5.768;2023-08-06T07:36:37;13.20;;;6.55;;
81811;SDS011;71243;51.848;5.768;2023-08-06T07:39:02;12.57;;;6.68;;
81811;SDS011;71243;51.848;5.768;2023-08-06T07:41:28;12.32;;;6.32;;
81811;SDS011;71243;51.848;5.768;2023-08-06T07:43:53;14.20;;;7.45;;
81811;SDS011;71243;51.848;5.768;2023-08-06T07:46:18;14.70;;;7.57;;
81811;SDS011;71243;51.848;5.768;2023-08-06T07:48:43;12.87;;;6.63;;
81811;SDS011;71243;51.848;5.768;2023-08-06T07:51:09;13.02;;;6.55;;
81811;SDS011;71243;51.848;5.768;2023-08-06T07:53:34;14.07;;;7.13;;
81811;SDS011;71243;51.848;5.768;2023-08-06T07:55:59;14.93;;;7.93;;
81811;SDS011;71243;51.848;5.768;2023-08-06T07:58:24;14.07;;;7.15;;
81811;SDS011;71243;51.848;5.768;2023-08-06T08:00:50;14.20;;;6.95;;
81811;SDS011;71243;51.848;5.768;2023-08-06T08:03:16;14.10;;;8.13;;
81811;SDS011;71243;51.848;5.768;2023-08-06T08:05:42;14.48;;;7.35;;
81811;SDS011;71243;51.848;5.768;2023-08-06T08:08:08;16.83;;;9.10;;
81811;SDS011;71243;51.848;5.768;2023-08-06T08:10:33;14.90;;;8.48;;
81811;SDS011;71243;51.848;5.768;2023-08-06T08:12:59;16.05;;;9.10;;
81811;SDS011;71243;51.848;5.768;2023-08-06T08:15:29;16.45;;;7.72;;
81811;SDS011;71243;51.848;5.768;2023-08-06T08:17:54;16.67;;;7.78;;
81811;SDS011;71243;51.848;5.768;2023-08-06T08:20:22;14.75;;;7.88;;
81811;SDS011;71243;51.848;5.768;2023-08-06T08:22:47;14.98;;;7.00;;
81811;SDS011;71243;51.848;5.768;2023-08-06T08:25:13;15.50;;;6.50;;
81811;SDS011;71243;51.848;5.768;2023-08-06T08:27:39;12.95;;;6.70;;
81811;SDS011;71243;51.848;5.768;2023-08-06T08:30:04;13.23;;;7.07;;
81811;SDS011;71243;51.848;5.768;2023-08-06T08:32:30;13.73;;;6.90;;
81811;SDS011;71243;51.848;5.768;2023-08-06T08:34:55;16.35;;;8.02;;
81811;SDS011;71243;51.848;5.768;2023-08-06T08:37:21;13.77;;;7.68;;
81811;SDS011;71243;51.848;5.768;2023-08-06T08:39:46;14.43;;;7.20;;
81811;SDS011;71243;51.848;5.768;2023-08-06T08:42:11;13.80;;;7.53;;
81811;SDS011;71243;51.848;5.768;2023-08-06T08:44:37;13.10;;;6.60;;
81811;SDS011;71243;51.848;5.768;2023-08-06T08:47:03;15.38;;;8.35;;
81811;SDS011;71243;51.848;5.768;2023-08-06T08:49:28;15.85;;;9.02;;
81811;SDS011;71243;51.848;5.768;2023-08-06T08:51:55;16.25;;;8.40;;
81811;SDS011;71243;51.848;5.768;2023-08-06T08:54:23;9.30;;;3.22;;
81811;SDS011;71243;51.848;5.768;2023-08-06T08:56:50;6.43;;;2.10;;
81811;SDS011;71243;51.848;5.768;2023-08-06T08:59:15;4.95;;;1.30;;
81811;SDS011;71243;51.848;5.768;2023-08-06T09:01:40;3.53;;;1.03;;
81811;SDS011;71243;51.848;5.768;2023-08-06T09:04:07;3.67;;;1.15;;
81811;SDS011;71243;51.848;5.768;2023-08-06T09:06:34;4.30;;;1.30;;
81811;SDS011;71243;51.848;5.768;2023-08-06T09:09:06;4.60;;;1.25;;
81811;SDS011;71243;51.848;5.768;2023-08-06T09:11:36;4.63;;;1.17;;
81811;SDS011;71243;51.848;5.768;2023-08-06T09:14:05;4.93;;;1.25;;
81811;SDS011;71243;51.848;5.768;2023-08-06T09:16:31;3.33;;;1.10;;
81811;SDS011;71243;51.848;5.768;2023-08-06T09:18:59;4.18;;;1.20;;
81811;SDS011;71243;51.848;5.768;2023-08-06T09:21:32;4.43;;;1.20;;
81811;SDS011;71243;51.848;5.768;2023-08-06T09:23:58;3.50;;;1.00;;
81811;SDS011;71243;51.848;5.768;2023-08-06T09:26:23;4.25;;;1.13;;
81811;SDS011;71243;51.848;5.768;2023-08-06T09:28:49;3.63;;;1.23;;
81811;SDS011;71243;51.848;5.768;2023-08-06T09:31:14;3.63;;;0.80;;
81811;SDS011;71243;51.848;5.768;2023-08-06T09:33:39;4.60;;;1.20;;
81811;SDS011;71243;51.848;5.768;2023-08-06T09:36:08;4.33;;;1.10;;
81811;SDS011;71243;51.848;5.768;2023-08-06T09:38:40;4.70;;;1.30;;
81811;SDS011;71243;51.848;5.768;2023-08-06T09:41:05;3.85;;;1.05;;
81811;SDS011;71243;51.848;5.768;2023-08-06T09:43:39;3.63;;;1.20;;
81811;SDS011;71243;51.848;5.768;2023-08-06T09:46:10;3.97;;;1.27;;
81811;SDS011;71243;51.848;5.768;2023-08-06T09:48:36;4.38;;;1.30;;
81811;SDS011;71243;51.848;5.768;2023-08-06T09:51:02;4.57;;;1.20;;
81811;SDS011;71243;51.848;5.768;2023-08-06T09:53:28;4.53;;;1.48;;
81811;SDS011;71243;51.848;5.768;2023-08-06T09:55:53;4.72;;;1.55;;
81811;SDS011;71243;51.848;5.768;2023-08-06T09:58:20;5.70;;;1.70;;
81811;SDS011;71243;51.848;5.768;2023-08-06T10:00:48;6.63;;;2.00;;
81811;SDS011;71243;51.848;5.768;2023-08-06T10:03:13;5.15;;;2.00;;
81811;SDS011;71243;51.848;5.768;2023-08-06T10:05:39;5.35;;;2.22;;
81811;SDS011;71243;51.848;5.768;2023-08-06T10:08:04;5.65;;;2.00;;
81811;SDS011;71243;51.848;5.768;2023-08-06T10:10:31;6.05;;;2.08;;
81811;SDS011;71243;51.848;5.768;2023-08-06T10:12:57;5.45;;;1.80;;
81811;SDS011;71243;51.848;5.768;2023-08-06T10:15:25;5.75;;;1.83;;
81811;SDS011;71243;51.848;5.768;2023-08-06T10:17:52;5.20;;;2.00;;
81811;SDS011;71243;51.848;5.768;2023-08-06T10:20:20;5.65;;;2.05;;
81811;SDS011;71243;51.848;5.768;2023-08-06T10:22:46;6.45;;;2.00;;
81811;SDS011;71243;51.848;5.768;2023-08-06T10:25:15;5.43;;;2.17;;
81811;SDS011;71243;51.848;5.768;2023-08-06T10:27:52;6.15;;;2.00;;
81811;SDS011;71243;51.848;5.768;2023-08-06T10:30:32;7.88;;;2.60;;
81811;SDS011;71243;51.848;5.768;2023-08-06T10:33:03;5.68;;;2.40;;
81811;SDS011;71243;51.848;5.768;2023-08-06T10:35:30;6.63;;;2.30;;
81811;SDS011;71243;51.848;5.768;2023-08-06T10:38:30;5.95;;;2.20;;
81811;SDS011;71243;51.848;5.768;2023-08-06T10:43:28;6.57;;;2.60;;
81811;SDS011;71243;51.848;5.768;2023-08-06T10:45:55;6.28;;;2.60;;
81811;SDS011;71243;51.848;5.768;2023-08-06T10:48:37;6.63;;;2.53;;
81811;SDS011;71243;51.848;5.768;2023-08-06T10:51:08;6.32;;;2.47;;
81811;SDS011;71243;51.848;5.768;2023-08-06T10:53:34;7.43;;;2.80;;
81811;SDS011;71243;51.848;5.768;2023-08-06T10:56:00;6.05;;;2.38;;
81811;SDS011;71243;51.848;5.768;2023-08-06T10:58:31;6.60;;;2.40;;
81811;SDS011;71243;51.848;5.768;2023-08-06T11:00:59;6.93;;;2.88;;
81811;SDS011;71243;51.848;5.768;2023-08-06T11:03:26;7.05;;;2.47;;
81811;SDS011;71243;51.848;5.768;2023-08-06T11:05:52;6.28;;;2.33;;
81811;SDS011;71243;51.848;5.768;2023-08-06T11:08:26;6.32;;;2.92;;
81811;SDS011;71243;51.848;5.768;2023-08-06T11:10:52;7.35;;;2.72;;
81811;SDS011;71243;51.848;5.768;2023-08-06T11:13:18;11.30;;;3.25;;
81811;SDS011;71243;51.848;5.768;2023-08-06T11:15:44;8.13;;;2.90;;
81811;SDS011;71243;51.848;5.768;2023-08-06T11:18:09;7.40;;;3.03;;
81811;SDS011;71243;51.848;5.768;2023-08-06T11:20:35;6.85;;;2.30;;
81811;SDS011;71243;51.848;5.768;2023-08-06T11:23:01;6.88;;;2.58;;
81811;SDS011;71243;51.848;5.768;2023-08-06T11:25:26;6.75;;;2.80;;
81811;SDS011;71243;51.848;5.768;2023-08-06T11:27:52;7.80;;;3.33;;
81811;SDS011;71243;51.848;5.768;2023-08-06T11:30:17;7.63;;;2.80;;
81811;SDS011;71243;51.848;5.768;2023-08-06T11:32:48;6.87;;;2.60;;
81811;SDS011;71243;51.848;5.768;2023-08-06T11:35:14;7.65;;;2.80;;
81811;SDS011;71243;51.848;5.768;2023-08-06T11:37:43;8.88;;;3.13;;
81811;SDS011;71243;51.848;5.768;2023-08-06T11:40:10;7.25;;;3.28;;
81811;SDS011;71243;51.848;5.768;2023-08-06T11:42:35;7.05;;;2.50;;
81811;SDS011;71243;51.848;5.768;2023-08-06T11:45:01;6.80;;;2.38;;
81811;SDS011;71243;51.848;5.768;2023-08-06T11:47:28;7.47;;;2.60;;
81811;SDS011;71243;51.848;5.768;2023-08-06T11:49:53;5.90;;;2.05;;
81811;SDS011;71243;51.848;5.768;2023-08-06T11:52:19;6.07;;;2.17;;
81811;SDS011;71243;51.848;5.768;2023-08-06T11:54:46;6.20;;;2.83;;
81811;SDS011;71243;51.848;5.768;2023-08-06T11:57:12;5.88;;;2.00;;
81811;SDS011;71243;51.848;5.768;2023-08-06T11:59:38;7.38;;;2.40;;
81811;SDS011;71243;51.848;5.768;2023-08-06T12:02:04;8.52;;;2.63;;
81811;SDS011;71243;51.848;5.768;2023-08-06T12:04:32;7.43;;;2.72;;
81811;SDS011;71243;51.848;5.768;2023-08-06T12:07:25;7.53;;;2.22;;
81811;SDS011;71243;51.848;5.768;2023-08-06T12:09:52;6.30;;;2.47;;
81811;SDS011;71243;51.848;5.768;2023-08-06T12:12:17;6.97;;;2.50;;
81811;SDS011;71243;51.848;5.768;2023-08-06T12:14:42;6.33;;;2.33;;
81811;SDS011;71243;51.848;5.768;2023-08-06T12:17:07;6.97;;;2.20;;
81811;SDS011;71243;51.848;5.768;2023-08-06T12:19:33;6.93;;;2.30;;
81811;SDS011;71243;51.848;5.768;2023-08-06T12:21:58;4.90;;;1.70;;
81811;SDS011;71243;51.848;5.768;2023-08-06T12:24:23;5.87;;;1.90;;
81811;SDS011;71243;51.848;5.768;2023-08-06T12:26:48;5.33;;;1.77;;
81811;SDS011;71243;51.848;5.768;2023-08-06T12:29:13;5.63;;;1.80;;
81811;SDS011;71243;51.848;5.768;2023-08-06T12:31:39;7.03;;;2.13;;
81811;SDS011;71243;51.848;5.768;2023-08-06T12:34:04;6.07;;;2.23;;
81811;SDS011;71243;51.848;5.768;2023-08-06T12:36:29;6.27;;;1.80;;
81811;SDS011;71243;51.848;5.768;2023-08-06T12:38:54;5.77;;;2.20;;
81811;SDS011;71243;51.848;5.768;2023-08-06T12:41:19;7.63;;;2.10;;
81811;SDS011;71243;51.848;5.768;2023-08-06T12:43:45;7.05;;;1.98;;
81811;SDS011;71243;51.848;5.768;2023-08-06T12:46:10;6.53;;;1.73;;
81811;SDS011;71243;51.848;5.768;2023-08-06T12:48:35;7.37;;;2.13;;
81811;SDS011;71243;51.848;5.768;2023-08-06T12:51:00;7.03;;;2.13;;
81811;SDS011;71243;51.848;5.768;2023-08-06T12:53:26;6.37;;;2.40;;
81811;SDS011;71243;51.848;5.768;2023-08-06T12:55:51;5.70;;;1.47;;
81811;SDS011;71243;51.848;5.768;2023-08-06T12:58:16;9.33;;;1.90;;
81811;SDS011;71243;51.848;5.768;2023-08-06T13:00:41;5.93;;;1.80;;
81811;SDS011;71243;51.848;5.768;2023-08-06T13:03:07;6.93;;;1.80;;
81811;SDS011;71243;51.848;5.768;2023-08-06T13:05:32;7.70;;;2.00;;
81811;SDS011;71243;51.848;5.768;2023-08-06T13:07:57;4.75;;;1.80;;
81811;SDS011;71243;51.848;5.768;2023-08-06T13:10:22;6.23;;;2.00;;
81811;SDS011;71243;51.848;5.768;2023-08-06T13:12:48;4.80;;;1.50;;
81811;SDS011;71243;51.848;5.768;2023-08-06T13:15:13;6.43;;;1.40;;
81811;SDS011;71243;51.848;5.768;2023-08-06T13:17:38;5.72;;;1.80;;
81811;SDS011;71243;51.848;5.768;2023-08-06T13:20:04;5.70;;;1.67;;
81811;SDS011;71243;51.848;5.768;2023-08-06T13:22:29;6.10;;;2.00;;
81811;SDS011;71243;51.848;5.768;2023-08-06T13:24:55;6.97;;;1.70;;
81811;SDS011;71243;51.848;5.768;2023-08-06T13:27:20;5.70;;;1.43;;
81811;SDS011;71243;51.848;5.768;2023-08-06T13:29:45;5.73;;;1.90;;
81811;SDS011;71243;51.848;5.768;2023-08-06T13:32:10;4.97;;;1.40;;
81811;SDS011;71243;51.848;5.768;2023-08-06T13:34:36;4.80;;;1.27;;
81811;SDS011;71243;51.848;5.768;2023-08-06T13:37:01;4.17;;;1.30;;
81811;SDS011;71243;51.848;5.768;2023-08-06T13:39:26;4.38;;;1.40;;
81811;SDS011;71243;51.848;5.768;2023-08-06T13:41:51;3.75;;;1.20;;
81811;SDS011;71243;51.848;5.768;2023-08-06T13:44:16;3.47;;;1.00;;
81811;SDS011;71243;51.848;5.768;2023-08-06T13:46:42;5.07;;;1.33;;
81811;SDS011;71243;51.848;5.768;2023-08-06T13:49:07;3.92;;;1.10;;
81811;SDS011;71243;51.848;5.768;2023-08-06T13:51:32;4.57;;;1.00;;
81811;SDS011;71243;51.848;5.768;2023-08-06T13:53:58;4.40;;;1.30;;
81811;SDS011;71243;51.848;5.768;2023-08-06T13:56:23;3.60;;;1.00;;
81811;SDS011;71243;51.848;5.768;2023-08-06T13:58:48;4.20;;;1.10;;
81811;SDS011;71243;51.848;5.768;2023-08-06T14:01:13;4.37;;;0.90;;
81811;SDS011;71243;51.848;5.768;2023-08-06T14:03:42;4.43;;;1.30;;
81811;SDS011;71243;51.848;5.768;2023-08-06T14:06:07;4.13;;;1.30;;
81811;SDS011;71243;51.848;5.768;2023-08-06T14:08:32;3.07;;;0.97;;
81811;SDS011;71243;51.848;5.768;2023-08-06T14:10:58;4.70;;;1.30;;
81811;SDS011;71243;51.848;5.768;2023-08-06T14:13:23;4.18;;;1.20;;
81811;SDS011;71243;51.848;5.768;2023-08-06T14:15:49;5.28;;;1.73;;
81811;SDS011;71243;51.848;5.768;2023-08-06T14:18:14;6.18;;;1.30;;
81811;SDS011;71243;51.848;5.768;2023-08-06T14:20:43;4.13;;;1.33;;
81811;SDS011;71243;51.848;5.768;2023-08-06T14:23:09;6.20;;;1.70;;
81811;SDS011;71243;51.848;5.768;2023-08-06T14:25:35;4.20;;;1.33;;
81811;SDS011;71243;51.848;5.768;2023-08-06T14:28:00;5.43;;;1.65;;
81811;SDS011;71243;51.848;5.768;2023-08-06T14:30:25;6.40;;;1.67;;
81811;SDS011;71243;51.848;5.768;2023-08-06T14:32:51;5.17;;;1.57;;
81811;SDS011;71243;51.848;5.768;2023-08-06T14:35:16;5.53;;;1.30;;
81811;SDS011;71243;51.848;5.768;2023-08-06T14:37:41;7.15;;;1.38;;
81811;SDS011;71243;51.848;5.768;2023-08-06T14:40:07;4.30;;;1.20;;
81811;SDS011;71243;51.848;5.768;2023-08-06T14:42:33;4.80;;;1.20;;
81811;SDS011;71243;51.848;5.768;2023-08-06T14:44:58;5.68;;;1.77;;
81811;SDS011;71243;51.848;5.768;2023-08-06T14:47:23;4.07;;;1.20;;